sensor_id;sensor_type;location;lat;lon;timestamp;P1;durP1;ratioP1;P2;durP2;ratioP2
17251;SDS011;8742;51.716;8.790;2022-08-19T00:00:41;10.07;;;7.00;;
17251;SDS011;8742;51.716;8.790;2022-08-19T00:03:08;10.10;;;7.17;;
17251;SDS011;8742;51.716;8.790;2022-08-19T00:05:35;17.17;;;7.50;;
17251;SDS011;8742;51.716;8.790;2022-08-19T00:08:02;10.13;;;7.43;;
17251;SDS011;8742;51.716;8.790;2022-08-19T00:10:30;11.80;;;7.73;;
17251;SDS011;8742;51.716;8.790;2022-08-19T00:12:56;14.83;;;7.83;;
17251;SDS011;8742;51.716;8.790;2022-08-19T00:15:23;13.03;;;7.17;;
17251;SDS011;8742;51.716;8.790;2022-08-19T00:17:52;12.97;;;7.80;;
17251;SDS011;8742;51.716;8.790;2022-08-19T00:20:21;10.40;;;7.40;;
17251;SDS011;8742;51.716;8.790;2022-08-19T00:22:48;11.97;;;7.10;;
17251;SDS011;8742;51.716;8.790;2022-08-19T00:25:16;11.97;;;7.53;;
17251;SDS011;8742;51.716;8.790;2022-08-19T00:27:43;14.97;;;7.57;;
17251;SDS011;8742;51.716;8.790;2022-08-19T00:30:11;10.13;;;7.57;;
17251;SDS011;8742;51.716;8.790;2022-08-19T00:32:39;11.43;;;7.13;;
17251;SDS011;8742;51.716;8.790;2022-08-19T00:35:08;9.43;;;7.00;;
17251;SDS011;8742;51.716;8.790;2022-08-19T00:37:35;10.70;;;7.23;;
17251;SDS011;8742;51.716;8.790;2022-08-19T00:40:04;11.00;;;7.53;;
17251;SDS011;8742;51.716;8.790;2022-08-19T00:42:32;9.27;;;7.30;;
17251;SDS011;8742;51.716;8.790;2022-08-19T00:44:59;10.20;;;6.93;;
17251;SDS011;8742;51.716;8.790;2022-08-19T00:47:26;13.00;;;7.37;;
17251;SDS011;8742;51.716;8.790;2022-08-19T00:49:53;9.93;;;7.33;;
17251;SDS011;8742;51.716;8.790;2022-08-19T00:52:26;11.00;;;7.27;;
17251;SDS011;8742;51.716;8.790;2022-08-19T00:54:55;10.13;;;7.03;;
17251;SDS011;8742;51.716;8.790;2022-08-19T00:57:24;9.73;;;7.40;;
17251;SDS011;8742;51.716;8.790;2022-08-19T00:59:56;9.93;;;7.63;;
17251;SDS011;8742;51.716;8.790;2022-08-19T01:02:25;15.13;;;7.53;;
17251;SDS011;8742;51.716;8.790;2022-08-19T01:04:52;13.20;;;7.77;;
17251;SDS011;8742;51.716;8.790;2022-08-19T01:07:20;12.37;;;7.60;;
17251;SDS011;8742;51.716;8.790;2022-08-19T01:09:48;10.60;;;7.77;;
17251;SDS011;8742;51.716;8.790;2022-08-19T01:12:15;11.10;;;7.47;;
17251;SDS011;8742;51.716;8.790;2022-08-19T01:14:44;12.97;;;7.63;;
17251;SDS011;8742;51.716;8.790;2022-08-19T01:17:12;10.83;;;7.83;;
17251;SDS011;8742;51.716;8.790;2022-08-19T01:19:40;10.43;;;7.53;;
17251;SDS011;8742;51.716;8.790;2022-08-19T01:22:11;13.07;;;8.17;;
17251;SDS011;8742;51.716;8.790;2022-08-19T01:24:43;10.27;;;8.00;;
17251;SDS011;8742;51.716;8.790;2022-08-19T01:27:10;12.33;;;8.13;;
17251;SDS011;8742;51.716;8.790;2022-08-19T01:29:38;15.43;;;8.30;;
17251;SDS011;8742;51.716;8.790;2022-08-19T01:32:06;13.20;;;8.07;;
17251;SDS011;8742;51.716;8.790;2022-08-19T01:34:34;16.17;;;8.03;;
17251;SDS011;8742;51.716;8.790;2022-08-19T01:37:05;15.63;;;8.40;;
17251;SDS011;8742;51.716;8.790;2022-08-19T01:39:36;13.00;;;7.80;;
17251;SDS011;8742;51.716;8.790;2022-08-19T01:42:06;11.27;;;8.33;;
17251;SDS011;8742;51.716;8.790;2022-08-19T01:44:35;16.13;;;8.23;;
17251;SDS011;8742;51.716;8.790;2022-08-19T01:47:02;14.50;;;8.73;;
17251;SDS011;8742;51.716;8.790;2022-08-19T01:49:30;14.83;;;8.20;;
17251;SDS011;8742;51.716;8.790;2022-08-19T01:51:58;10.27;;;8.17;;
17251;SDS011;8742;51.716;8.790;2022-08-19T01:54:26;12.57;;;8.60;;
17251;SDS011;8742;51.716;8.790;2022-08-19T01:56:54;15.00;;;8.50;;
17251;SDS011;8742;51.716;8.790;2022-08-19T01:59:27;13.50;;;8.30;;
17251;SDS011;8742;51.716;8.790;2022-08-19T02:01:54;13.07;;;8.37;;
17251;SDS011;8742;51.716;8.790;2022-08-19T02:04:21;11.10;;;8.13;;
17251;SDS011;8742;51.716;8.790;2022-08-19T02:06:50;16.27;;;8.67;;
17251;SDS011;8742;51.716;8.790;2022-08-19T02:09:17;12.90;;;8.70;;
17251;SDS011;8742;51.716;8.790;2022-08-19T02:11:44;14.20;;;8.67;;
17251;SDS011;8742;51.716;8.790;2022-08-19T02:14:11;17.57;;;8.73;;
17251;SDS011;8742;51.716;8.790;2022-08-19T02:16:39;10.57;;;8.43;;
17251;SDS011;8742;51.716;8.790;2022-08-19T02:19:06;14.30;;;8.97;;
17251;SDS011;8742;51.716;8.790;2022-08-19T02:21:34;15.60;;;9.10;;
17251;SDS011;8742;51.716;8.790;2022-08-19T02:24:01;21.23;;;9.50;;
17251;SDS011;8742;51.716;8.790;2022-08-19T02:26:29;13.93;;;9.10;;
17251;SDS011;8742;51.716;8.790;2022-08-19T02:28:55;13.97;;;9.37;;
17251;SDS011;8742;51.716;8.790;2022-08-19T02:31:23;11.70;;;8.67;;
17251;SDS011;8742;51.716;8.790;2022-08-19T02:33:54;11.13;;;8.87;;
17251;SDS011;8742;51.716;8.790;2022-08-19T02:36:21;15.03;;;9.57;;
17251;SDS011;8742;51.716;8.790;2022-08-19T02:38:49;14.27;;;8.87;;
17251;SDS011;8742;51.716;8.790;2022-08-19T02:41:16;15.90;;;9.30;;
17251;SDS011;8742;51.716;8.790;2022-08-19T02:43:45;14.90;;;8.47;;
17251;SDS011;8742;51.716;8.790;2022-08-19T02:46:17;11.00;;;8.53;;
17251;SDS011;8742;51.716;8.790;2022-08-19T02:48:46;17.30;;;8.60;;
17251;SDS011;8742;51.716;8.790;2022-08-19T02:51:17;15.63;;;8.83;;
17251;SDS011;8742;51.716;8.790;2022-08-19T02:53:44;12.73;;;9.13;;
17251;SDS011;8742;51.716;8.790;2022-08-19T02:56:11;15.90;;;8.90;;
17251;SDS011;8742;51.716;8.790;2022-08-19T02:58:39;21.07;;;9.80;;
17251;SDS011;8742;51.716;8.790;2022-08-19T03:01:06;20.50;;;9.63;;
17251;SDS011;8742;51.716;8.790;2022-08-19T03:03:33;14.97;;;9.27;;
17251;SDS011;8742;51.716;8.790;2022-08-19T03:06:04;12.27;;;8.97;;
17251;SDS011;8742;51.716;8.790;2022-08-19T03:08:34;13.00;;;9.60;;
17251;SDS011;8742;51.716;8.790;2022-08-19T03:11:02;15.63;;;9.37;;
17251;SDS011;8742;51.716;8.790;2022-08-19T03:13:29;17.50;;;10.57;;
17251;SDS011;8742;51.716;8.790;2022-08-19T03:15:56;20.43;;;10.60;;
17251;SDS011;8742;51.716;8.790;2022-08-19T03:18:23;16.10;;;10.60;;
17251;SDS011;8742;51.716;8.790;2022-08-19T03:20:50;19.60;;;10.53;;
17251;SDS011;8742;51.716;8.790;2022-08-19T03:23:19;21.63;;;10.53;;
17251;SDS011;8742;51.716;8.790;2022-08-19T03:25:51;15.80;;;10.23;;
17251;SDS011;8742;51.716;8.790;2022-08-19T03:28:19;14.03;;;10.10;;
17251;SDS011;8742;51.716;8.790;2022-08-19T03:30:56;15.33;;;10.47;;
17251;SDS011;8742;51.716;8.790;2022-08-19T03:33:25;12.87;;;9.77;;
17251;SDS011;8742;51.716;8.790;2022-08-19T03:35:59;20.57;;;11.17;;
17251;SDS011;8742;51.716;8.790;2022-08-19T03:38:32;15.20;;;10.87;;
17251;SDS011;8742;51.716;8.790;2022-08-19T03:41:03;16.57;;;10.83;;
17251;SDS011;8742;51.716;8.790;2022-08-19T03:43:33;15.43;;;10.57;;
17251;SDS011;8742;51.716;8.790;2022-08-19T03:46:02;21.53;;;12.57;;
17251;SDS011;8742;51.716;8.790;2022-08-19T03:48:31;14.90;;;11.13;;
17251;SDS011;8742;51.716;8.790;2022-08-19T03:50:58;22.17;;;12.53;;
17251;SDS011;8742;51.716;8.790;2022-08-19T03:53:25;20.63;;;12.27;;
17251;SDS011;8742;51.716;8.790;2022-08-19T03:55:53;18.60;;;11.80;;
17251;SDS011;8742;51.716;8.790;2022-08-19T03:58:21;24.77;;;13.17;;
17251;SDS011;8742;51.716;8.790;2022-08-19T04:00:49;22.17;;;13.57;;
17251;SDS011;8742;51.716;8.790;2022-08-19T04:03:16;24.27;;;15.30;;
17251;SDS011;8742;51.716;8.790;2022-08-19T04:05:43;19.40;;;14.93;;
17251;SDS011;8742;51.716;8.790;2022-08-19T04:08:11;26.53;;;16.10;;
17251;SDS011;8742;51.716;8.790;2022-08-19T04:10:45;24.13;;;16.17;;
17251;SDS011;8742;51.716;8.790;2022-08-19T04:13:12;28.27;;;16.50;;
17251;SDS011;8742;51.716;8.790;2022-08-19T04:15:41;22.50;;;16.57;;
17251;SDS011;8742;51.716;8.790;2022-08-19T04:18:09;21.73;;;17.37;;
17251;SDS011;8742;51.716;8.790;2022-08-19T04:20:40;31.33;;;17.20;;
17251;SDS011;8742;51.716;8.790;2022-08-19T04:23:08;26.67;;;16.60;;
17251;SDS011;8742;51.716;8.790;2022-08-19T04:25:36;28.27;;;17.63;;
17251;SDS011;8742;51.716;8.790;2022-08-19T04:28:04;28.40;;;18.27;;
17251;SDS011;8742;51.716;8.790;2022-08-19T04:30:36;26.67;;;17.00;;
17251;SDS011;8742;51.716;8.790;2022-08-19T04:33:05;26.33;;;17.37;;
17251;SDS011;8742;51.716;8.790;2022-08-19T04:35:37;26.73;;;18.97;;
17251;SDS011;8742;51.716;8.790;2022-08-19T04:38:04;28.63;;;19.77;;
17251;SDS011;8742;51.716;8.790;2022-08-19T04:40:32;34.23;;;20.30;;
17251;SDS011;8742;51.716;8.790;2022-08-19T04:43:17;32.53;;;19.63;;
17251;SDS011;8742;51.716;8.790;2022-08-19T04:45:44;30.87;;;19.03;;
17251;SDS011;8742;51.716;8.790;2022-08-19T04:48:14;30.70;;;19.50;;
17251;SDS011;8742;51.716;8.790;2022-08-19T04:50:43;31.03;;;20.83;;
17251;SDS011;8742;51.716;8.790;2022-08-19T04:53:10;31.23;;;20.50;;
17251;SDS011;8742;51.716;8.790;2022-08-19T04:55:40;33.10;;;20.30;;
17251;SDS011;8742;51.716;8.790;2022-08-19T04:58:08;34.13;;;20.23;;
17251;SDS011;8742;51.716;8.790;2022-08-19T05:00:37;28.10;;;20.00;;
17251;SDS011;8742;51.716;8.790;2022-08-19T05:03:04;28.70;;;20.50;;
17251;SDS011;8742;51.716;8.790;2022-08-19T05:05:33;35.60;;;21.30;;
17251;SDS011;8742;51.716;8.790;2022-08-19T05:08:04;32.70;;;20.70;;
17251;SDS011;8742;51.716;8.790;2022-08-19T05:10:30;31.10;;;22.30;;
17251;SDS011;8742;51.716;8.790;2022-08-19T05:12:57;41.60;;;22.73;;
17251;SDS011;8742;51.716;8.790;2022-08-19T05:15:24;40.07;;;24.20;;
17251;SDS011;8742;51.716;8.790;2022-08-19T05:17:51;41.37;;;23.83;;
17251;SDS011;8742;51.716;8.790;2022-08-19T05:20:38;31.23;;;22.93;;
17251;SDS011;8742;51.716;8.790;2022-08-19T05:23:23;33.93;;;24.37;;
17251;SDS011;8742;51.716;8.790;2022-08-19T05:25:50;36.63;;;24.67;;
17251;SDS011;8742;51.716;8.790;2022-08-19T05:28:17;39.00;;;24.50;;
17251;SDS011;8742;51.716;8.790;2022-08-19T05:30:45;41.53;;;24.73;;
17251;SDS011;8742;51.716;8.790;2022-08-19T05:33:13;34.67;;;25.10;;
17251;SDS011;8742;51.716;8.790;2022-08-19T05:35:41;39.37;;;24.00;;
17251;SDS011;8742;51.716;8.790;2022-08-19T05:38:09;32.90;;;22.30;;
17251;SDS011;8742;51.716;8.790;2022-08-19T05:40:37;39.53;;;23.80;;
17251;SDS011;8742;51.716;8.790;2022-08-19T05:43:05;34.97;;;24.33;;
17251;SDS011;8742;51.716;8.790;2022-08-19T05:45:37;40.37;;;25.17;;
17251;SDS011;8742;51.716;8.790;2022-08-19T05:48:05;43.77;;;23.30;;
17251;SDS011;8742;51.716;8.790;2022-08-19T05:50:32;35.60;;;23.57;;
17251;SDS011;8742;51.716;8.790;2022-08-19T05:53:00;38.47;;;24.63;;
17251;SDS011;8742;51.716;8.790;2022-08-19T05:55:27;38.90;;;23.47;;
17251;SDS011;8742;51.716;8.790;2022-08-19T05:57:54;36.17;;;23.57;;
17251;SDS011;8742;51.716;8.790;2022-08-19T06:00:21;36.30;;;24.50;;
17251;SDS011;8742;51.716;8.790;2022-08-19T06:02:48;31.87;;;22.83;;
17251;SDS011;8742;51.716;8.790;2022-08-19T06:05:16;40.07;;;24.10;;
17251;SDS011;8742;51.716;8.790;2022-08-19T06:07:43;39.40;;;23.50;;
17251;SDS011;8742;51.716;8.790;2022-08-19T06:10:11;33.23;;;22.23;;
17251;SDS011;8742;51.716;8.790;2022-08-19T06:12:38;40.60;;;21.80;;
17251;SDS011;8742;51.716;8.790;2022-08-19T06:15:06;31.97;;;21.43;;
17251;SDS011;8742;51.716;8.790;2022-08-19T06:17:35;38.83;;;21.40;;
17251;SDS011;8742;51.716;8.790;2022-08-19T06:20:03;31.47;;;19.80;;
17251;SDS011;8742;51.716;8.790;2022-08-19T06:22:30;27.53;;;20.70;;
17251;SDS011;8742;51.716;8.790;2022-08-19T06:24:57;27.93;;;20.20;;
17251;SDS011;8742;51.716;8.790;2022-08-19T06:27:25;25.20;;;18.60;;
17251;SDS011;8742;51.716;8.790;2022-08-19T06:29:54;33.93;;;20.73;;
17251;SDS011;8742;51.716;8.790;2022-08-19T06:32:21;29.70;;;18.40;;
17251;SDS011;8742;51.716;8.790;2022-08-19T06:34:48;36.07;;;19.37;;
17251;SDS011;8742;51.716;8.790;2022-08-19T06:37:15;36.80;;;20.10;;
17251;SDS011;8742;51.716;8.790;2022-08-19T06:39:43;29.10;;;20.47;;
17251;SDS011;8742;51.716;8.790;2022-08-19T06:42:11;38.97;;;22.13;;
17251;SDS011;8742;51.716;8.790;2022-08-19T06:44:46;39.70;;;20.90;;
17251;SDS011;8742;51.716;8.790;2022-08-19T06:47:15;30.87;;;20.33;;
17251;SDS011;8742;51.716;8.790;2022-08-19T06:49:44;27.97;;;20.47;;
17251;SDS011;8742;51.716;8.790;2022-08-19T06:52:12;29.57;;;18.03;;
17251;SDS011;8742;51.716;8.790;2022-08-19T06:54:52;35.07;;;20.10;;
17251;SDS011;8742;51.716;8.790;2022-08-19T06:57:19;25.37;;;18.03;;
17251;SDS011;8742;51.716;8.790;2022-08-19T06:59:48;27.90;;;18.80;;
17251;SDS011;8742;51.716;8.790;2022-08-19T07:04:42;30.47;;;19.17;;
17251;SDS011;8742;51.716;8.790;2022-08-19T07:07:10;29.23;;;18.70;;
17251;SDS011;8742;51.716;8.790;2022-08-19T07:09:41;26.97;;;17.87;;
17251;SDS011;8742;51.716;8.790;2022-08-19T07:12:10;34.77;;;19.60;;
17251;SDS011;8742;51.716;8.790;2022-08-19T07:14:39;32.53;;;19.67;;
17251;SDS011;8742;51.716;8.790;2022-08-19T07:17:08;26.73;;;17.80;;
17251;SDS011;8742;51.716;8.790;2022-08-19T07:19:37;29.03;;;17.83;;
17251;SDS011;8742;51.716;8.790;2022-08-19T07:22:06;30.17;;;18.77;;
17251;SDS011;8742;51.716;8.790;2022-08-19T07:24:34;30.03;;;18.03;;
17251;SDS011;8742;51.716;8.790;2022-08-19T07:27:03;27.97;;;18.27;;
17251;SDS011;8742;51.716;8.790;2022-08-19T07:29:32;26.17;;;17.27;;
17251;SDS011;8742;51.716;8.790;2022-08-19T07:32:00;28.67;;;18.33;;
17251;SDS011;8742;51.716;8.790;2022-08-19T07:34:29;23.80;;;17.17;;
17251;SDS011;8742;51.716;8.790;2022-08-19T07:36:59;24.43;;;16.20;;
17251;SDS011;8742;51.716;8.790;2022-08-19T07:39:27;31.30;;;17.30;;
17251;SDS011;8742;51.716;8.790;2022-08-19T07:41:57;27.37;;;15.20;;
17251;SDS011;8742;51.716;8.790;2022-08-19T07:44:25;23.20;;;14.13;;
17251;SDS011;8742;51.716;8.790;2022-08-19T07:46:53;20.67;;;13.03;;
17251;SDS011;8742;51.716;8.790;2022-08-19T07:49:22;19.10;;;13.23;;
17251;SDS011;8742;51.716;8.790;2022-08-19T07:51:52;22.80;;;15.10;;
17251;SDS011;8742;51.716;8.790;2022-08-19T07:54:21;23.17;;;14.20;;
17251;SDS011;8742;51.716;8.790;2022-08-19T07:56:49;21.37;;;14.77;;
17251;SDS011;8742;51.716;8.790;2022-08-19T07:59:17;20.23;;;13.80;;
17251;SDS011;8742;51.716;8.790;2022-08-19T08:01:45;21.77;;;13.57;;
17251;SDS011;8742;51.716;8.790;2022-08-19T08:04:12;23.93;;;14.50;;
17251;SDS011;8742;51.716;8.790;2022-08-19T08:06:58;24.63;;;15.63;;
17251;SDS011;8742;51.716;8.790;2022-08-19T08:09:43;23.57;;;14.97;;
17251;SDS011;8742;51.716;8.790;2022-08-19T08:12:12;23.33;;;13.17;;
17251;SDS011;8742;51.716;8.790;2022-08-19T08:14:42;19.73;;;14.37;;
17251;SDS011;8742;51.716;8.790;2022-08-19T08:17:12;18.90;;;12.73;;
17251;SDS011;8742;51.716;8.790;2022-08-19T08:19:40;26.43;;;13.87;;
17251;SDS011;8742;51.716;8.790;2022-08-19T08:22:09;18.47;;;13.40;;
17251;SDS011;8742;51.716;8.790;2022-08-19T08:25:00;16.87;;;11.80;;
17251;SDS011;8742;51.716;8.790;2022-08-19T08:27:28;16.23;;;10.43;;
17251;SDS011;8742;51.716;8.790;2022-08-19T08:29:56;12.20;;;8.80;;
17251;SDS011;8742;51.716;8.790;2022-08-19T08:32:23;21.53;;;11.80;;
17251;SDS011;8742;51.716;8.790;2022-08-19T08:34:50;19.90;;;10.50;;
17251;SDS011;8742;51.716;8.790;2022-08-19T08:37:20;15.47;;;10.73;;
17251;SDS011;8742;51.716;8.790;2022-08-19T08:39:48;20.20;;;9.73;;
17251;SDS011;8742;51.716;8.790;2022-08-19T08:42:17;14.80;;;10.57;;
17251;SDS011;8742;51.716;8.790;2022-08-19T08:44:47;18.47;;;10.60;;
17251;SDS011;8742;51.716;8.790;2022-08-19T08:47:16;17.40;;;10.87;;
17251;SDS011;8742;51.716;8.790;2022-08-19T08:49:48;13.93;;;8.70;;
17251;SDS011;8742;51.716;8.790;2022-08-19T08:52:21;14.50;;;8.67;;
17251;SDS011;8742;51.716;8.790;2022-08-19T08:54:51;11.63;;;8.17;;
17251;SDS011;8742;51.716;8.790;2022-08-19T08:57:23;15.40;;;8.83;;
17251;SDS011;8742;51.716;8.790;2022-08-19T08:59:54;15.57;;;9.07;;
17251;SDS011;8742;51.716;8.790;2022-08-19T09:02:24;11.38;;;8.20;;
17251;SDS011;8742;51.716;8.790;2022-08-19T09:04:51;11.90;;;8.00;;
17251;SDS011;8742;51.716;8.790;2022-08-19T09:07:25;11.30;;;6.40;;
17251;SDS011;8742;51.716;8.790;2022-08-19T09:10:04;10.85;;;7.60;;
17251;SDS011;8742;51.716;8.790;2022-08-19T09:12:42;10.35;;;7.55;;
17251;SDS011;8742;51.716;8.790;2022-08-19T09:15:17;9.35;;;5.90;;
17251;SDS011;8742;51.716;8.790;2022-08-19T09:17:48;13.75;;;6.53;;
17251;SDS011;8742;51.716;8.790;2022-08-19T09:20:15;8.57;;;4.50;;
17251;SDS011;8742;51.716;8.790;2022-08-19T09:22:46;7.45;;;4.70;;
17251;SDS011;8742;51.716;8.790;2022-08-19T09:25:15;7.97;;;5.95;;
17251;SDS011;8742;51.716;8.790;2022-08-19T09:27:42;6.60;;;5.00;;
17251;SDS011;8742;51.716;8.790;2022-08-19T09:30:12;5.60;;;4.55;;
17251;SDS011;8742;51.716;8.790;2022-08-19T09:32:40;7.55;;;4.90;;
17251;SDS011;8742;51.716;8.790;2022-08-19T09:35:08;8.25;;;4.90;;
17251;SDS011;8742;51.716;8.790;2022-08-19T09:37:35;7.57;;;4.43;;
17251;SDS011;8742;51.716;8.790;2022-08-19T09:40:04;8.48;;;5.20;;
17251;SDS011;8742;51.716;8.790;2022-08-19T09:42:32;8.02;;;4.47;;
17251;SDS011;8742;51.716;8.790;2022-08-19T09:44:59;6.82;;;4.63;;
17251;SDS011;8742;51.716;8.790;2022-08-19T09:47:26;7.88;;;4.03;;
17251;SDS011;8742;51.716;8.790;2022-08-19T09:49:53;7.00;;;4.93;;
17251;SDS011;8742;51.716;8.790;2022-08-19T09:52:20;16.15;;;4.63;;
17251;SDS011;8742;51.716;8.790;2022-08-19T09:54:47;6.07;;;4.10;;
17251;SDS011;8742;51.716;8.790;2022-08-19T09:57:19;8.95;;;3.88;;
17251;SDS011;8742;51.716;8.790;2022-08-19T09:59:46;6.50;;;3.25;;
17251;SDS011;8742;51.716;8.790;2022-08-19T10:02:13;7.13;;;3.47;;
17251;SDS011;8742;51.716;8.790;2022-08-19T10:04:40;5.00;;;3.72;;
17251;SDS011;8742;51.716;8.790;2022-08-19T10:07:24;6.78;;;3.70;;
17251;SDS011;8742;51.716;8.790;2022-08-19T10:09:51;8.52;;;3.75;;
17251;SDS011;8742;51.716;8.790;2022-08-19T10:12:19;5.35;;;3.30;;
17251;SDS011;8742;51.716;8.790;2022-08-19T10:14:46;5.82;;;3.20;;
17251;SDS011;8742;51.716;8.790;2022-08-19T10:17:13;6.30;;;3.00;;
17251;SDS011;8742;51.716;8.790;2022-08-19T10:19:40;6.07;;;3.10;;
17251;SDS011;8742;51.716;8.790;2022-08-19T10:22:07;4.97;;;3.38;;
17251;SDS011;8742;51.716;8.790;2022-08-19T10:24:36;3.50;;;3.00;;
17251;SDS011;8742;51.716;8.790;2022-08-19T10:27:03;4.95;;;3.38;;
17251;SDS011;8742;51.716;8.790;2022-08-19T10:29:32;6.47;;;2.78;;
17251;SDS011;8742;51.716;8.790;2022-08-19T10:32:00;6.28;;;3.10;;
17251;SDS011;8742;51.716;8.790;2022-08-19T10:34:29;5.03;;;2.88;;
17251;SDS011;8742;51.716;8.790;2022-08-19T10:36:57;10.88;;;2.90;;
17251;SDS011;8742;51.716;8.790;2022-08-19T10:39:25;3.60;;;3.20;;
17251;SDS011;8742;51.716;8.790;2022-08-19T10:41:53;10.85;;;3.33;;
17251;SDS011;8742;51.716;8.790;2022-08-19T10:44:21;6.47;;;3.08;;
17251;SDS011;8742;51.716;8.790;2022-08-19T10:46:49;6.35;;;3.08;;
17251;SDS011;8742;51.716;8.790;2022-08-19T10:49:17;3.72;;;3.33;;
17251;SDS011;8742;51.716;8.790;2022-08-19T10:51:45;12.63;;;3.33;;
17251;SDS011;8742;51.716;8.790;2022-08-19T10:54:32;5.22;;;3.30;;
17251;SDS011;8742;51.716;8.790;2022-08-19T10:57:17;5.40;;;3.40;;
17251;SDS011;8742;51.716;8.790;2022-08-19T10:59:44;4.72;;;3.67;;
17251;SDS011;8742;51.716;8.790;2022-08-19T11:02:13;4.53;;;2.95;;
17251;SDS011;8742;51.716;8.790;2022-08-19T11:04:40;6.07;;;3.50;;
17251;SDS011;8742;51.716;8.790;2022-08-19T11:07:08;4.57;;;3.08;;
17251;SDS011;8742;51.716;8.790;2022-08-19T11:09:38;6.93;;;3.22;;
17251;SDS011;8742;51.716;8.790;2022-08-19T11:12:05;6.38;;;2.97;;
17251;SDS011;8742;51.716;8.790;2022-08-19T11:14:33;4.57;;;3.17;;
17251;SDS011;8742;51.716;8.790;2022-08-19T11:17:01;7.20;;;3.00;;
17251;SDS011;8742;51.716;8.790;2022-08-19T11:19:29;5.30;;;3.28;;
17251;SDS011;8742;51.716;8.790;2022-08-19T11:21:57;6.28;;;3.67;;
17251;SDS011;8742;51.716;8.790;2022-08-19T11:24:28;4.95;;;3.75;;
17251;SDS011;8742;51.716;8.790;2022-08-19T11:27:02;5.00;;;3.00;;
17251;SDS011;8742;51.716;8.790;2022-08-19T11:29:30;5.88;;;3.72;;
17251;SDS011;8742;51.716;8.790;2022-08-19T11:31:59;7.13;;;3.33;;
17251;SDS011;8742;51.716;8.790;2022-08-19T11:34:29;4.53;;;3.53;;
17251;SDS011;8742;51.716;8.790;2022-08-19T11:36:57;6.85;;;3.38;;
17251;SDS011;8742;51.716;8.790;2022-08-19T11:39:25;6.03;;;3.15;;
17251;SDS011;8742;51.716;8.790;2022-08-19T11:41:52;10.25;;;3.10;;
17251;SDS011;8742;51.716;8.790;2022-08-19T11:44:19;3.60;;;3.10;;
17251;SDS011;8742;51.716;8.790;2022-08-19T11:46:46;3.67;;;3.10;;
17251;SDS011;8742;51.716;8.790;2022-08-19T11:49:13;6.05;;;2.90;;
17251;SDS011;8742;51.716;8.790;2022-08-19T11:51:43;6.97;;;2.97;;
17251;SDS011;8742;51.716;8.790;2022-08-19T11:54:10;4.43;;;2.60;;
17251;SDS011;8742;51.716;8.790;2022-08-19T11:56:38;4.82;;;2.50;;
17251;SDS011;8742;51.716;8.790;2022-08-19T11:59:05;2.95;;;2.70;;
17251;SDS011;8742;51.716;8.790;2022-08-19T12:01:33;9.18;;;2.50;;
17251;SDS011;8742;51.716;8.790;2022-08-19T12:04:00;3.65;;;2.33;;
17251;SDS011;8742;51.716;8.790;2022-08-19T12:06:30;2.72;;;2.35;;
17251;SDS011;8742;51.716;8.790;2022-08-19T12:09:03;2.50;;;2.08;;
17251;SDS011;8742;51.716;8.790;2022-08-19T12:11:32;3.53;;;2.50;;
17251;SDS011;8742;51.716;8.790;2022-08-19T12:13:59;4.20;;;2.70;;
17251;SDS011;8742;51.716;8.790;2022-08-19T12:16:26;2.28;;;2.00;;
17251;SDS011;8742;51.716;8.790;2022-08-19T12:18:55;5.43;;;2.60;;
17251;SDS011;8742;51.716;8.790;2022-08-19T12:21:28;3.83;;;2.15;;
17251;SDS011;8742;51.716;8.790;2022-08-19T12:23:55;3.42;;;2.25;;
17251;SDS011;8742;51.716;8.790;2022-08-19T12:26:25;8.85;;;2.50;;
17251;SDS011;8742;51.716;8.790;2022-08-19T12:28:54;4.07;;;2.47;;
17251;SDS011;8742;51.716;8.790;2022-08-19T12:31:21;4.45;;;2.10;;
17251;SDS011;8742;51.716;8.790;2022-08-19T12:33:48;1.83;;;1.73;;
17251;SDS011;8742;51.716;8.790;2022-08-19T12:36:16;3.00;;;2.25;;
17251;SDS011;8742;51.716;8.790;2022-08-19T12:38:43;2.80;;;2.10;;
17251;SDS011;8742;51.716;8.790;2022-08-19T12:41:12;3.40;;;2.28;;
17251;SDS011;8742;51.716;8.790;2022-08-19T12:43:41;3.20;;;1.95;;
17251;SDS011;8742;51.716;8.790;2022-08-19T12:46:09;3.88;;;1.77;;
17251;SDS011;8742;51.716;8.790;2022-08-19T12:48:37;1.92;;;1.80;;
17251;SDS011;8742;51.716;8.790;2022-08-19T12:51:07;3.03;;;2.05;;
17251;SDS011;8742;51.716;8.790;2022-08-19T12:53:36;2.38;;;1.95;;
17251;SDS011;8742;51.716;8.790;2022-08-19T12:56:03;2.63;;;1.90;;
17251;SDS011;8742;51.716;8.790;2022-08-19T12:58:31;2.90;;;1.92;;
17251;SDS011;8742;51.716;8.790;2022-08-19T13:01:00;1.67;;;1.55;;
17251;SDS011;8742;51.716;8.790;2022-08-19T13:03:32;2.75;;;1.90;;
17251;SDS011;8742;51.716;8.790;2022-08-19T13:06:00;3.40;;;2.10;;
17251;SDS011;8742;51.716;8.790;2022-08-19T13:08:27;5.53;;;2.10;;
17251;SDS011;8742;51.716;8.790;2022-08-19T13:10:53;2.45;;;2.10;;
17251;SDS011;8742;51.716;8.790;2022-08-19T13:13:20;3.72;;;2.38;;
17251;SDS011;8742;51.716;8.790;2022-08-19T13:15:47;3.10;;;2.50;;
17251;SDS011;8742;51.716;8.790;2022-08-19T13:18:16;2.70;;;2.30;;
17251;SDS011;8742;51.716;8.790;2022-08-19T13:20:43;6.80;;;2.45;;
17251;SDS011;8742;51.716;8.790;2022-08-19T13:23:09;2.65;;;2.20;;
17251;SDS011;8742;51.716;8.790;2022-08-19T13:25:36;4.10;;;2.33;;
17251;SDS011;8742;51.716;8.790;2022-08-19T13:28:03;3.15;;;2.10;;
17251;SDS011;8742;51.716;8.790;2022-08-19T13:30:31;3.70;;;2.25;;
17251;SDS011;8742;51.716;8.790;2022-08-19T13:33:17;3.60;;;2.47;;
17251;SDS011;8742;51.716;8.790;2022-08-19T13:35:46;3.97;;;2.63;;
17251;SDS011;8742;51.716;8.790;2022-08-19T13:38:16;4.60;;;2.50;;
17251;SDS011;8742;51.716;8.790;2022-08-19T13:40:45;2.33;;;2.13;;
17251;SDS011;8742;51.716;8.790;2022-08-19T13:43:14;2.60;;;2.40;;
17251;SDS011;8742;51.716;8.790;2022-08-19T13:45:42;2.97;;;2.35;;
17251;SDS011;8742;51.716;8.790;2022-08-19T13:48:10;2.40;;;2.20;;
17251;SDS011;8742;51.716;8.790;2022-08-19T13:50:39;7.68;;;2.58;;
17251;SDS011;8742;51.716;8.790;2022-08-19T13:53:08;4.43;;;2.08;;
17251;SDS011;8742;51.716;8.790;2022-08-19T13:55:37;4.15;;;2.45;;
17251;SDS011;8742;51.716;8.790;2022-08-19T13:58:04;3.35;;;2.45;;
17251;SDS011;8742;51.716;8.790;2022-08-19T14:00:32;2.72;;;2.53;;
17251;SDS011;8742;51.716;8.790;2022-08-19T14:03:01;3.00;;;2.60;;
17251;SDS011;8742;51.716;8.790;2022-08-19T14:05:29;6.10;;;2.63;;
17251;SDS011;8742;51.716;8.790;2022-08-19T14:07:58;3.63;;;2.58;;
17251;SDS011;8742;51.716;8.790;2022-08-19T14:10:26;3.45;;;2.60;;
17251;SDS011;8742;51.716;8.790;2022-08-19T14:12:55;4.70;;;2.67;;
17251;SDS011;8742;51.716;8.790;2022-08-19T14:15:24;6.38;;;2.92;;
17251;SDS011;8742;51.716;8.790;2022-08-19T14:17:52;4.63;;;2.40;;
17251;SDS011;8742;51.716;8.790;2022-08-19T14:20:19;4.13;;;2.55;;
17251;SDS011;8742;51.716;8.790;2022-08-19T14:22:47;5.45;;;3.00;;
17251;SDS011;8742;51.716;8.790;2022-08-19T14:25:17;4.35;;;2.60;;
17251;SDS011;8742;51.716;8.790;2022-08-19T14:27:47;3.15;;;2.30;;
17251;SDS011;8742;51.716;8.790;2022-08-19T14:30:15;3.30;;;2.58;;
17251;SDS011;8742;51.716;8.790;2022-08-19T14:32:44;2.78;;;2.53;;
17251;SDS011;8742;51.716;8.790;2022-08-19T14:35:12;3.38;;;2.50;;
17251;SDS011;8742;51.716;8.790;2022-08-19T14:37:41;4.80;;;2.50;;
17251;SDS011;8742;51.716;8.790;2022-08-19T14:40:09;4.47;;;2.90;;
17251;SDS011;8742;51.716;8.790;2022-08-19T14:42:38;4.82;;;2.83;;
17251;SDS011;8742;51.716;8.790;2022-08-19T14:45:06;6.28;;;2.83;;
17251;SDS011;8742;51.716;8.790;2022-08-19T14:47:34;4.32;;;2.78;;
17251;SDS011;8742;51.716;8.790;2022-08-19T14:50:01;3.38;;;2.65;;
17251;SDS011;8742;51.716;8.790;2022-08-19T14:52:28;7.28;;;2.45;;
17251;SDS011;8742;51.716;8.790;2022-08-19T14:54:55;5.28;;;2.60;;
17251;SDS011;8742;51.716;8.790;2022-08-19T14:57:22;2.85;;;2.55;;
17251;SDS011;8742;51.716;8.790;2022-08-19T14:59:50;4.82;;;2.63;;